Algoma, WV

2:47 PM EST on November 23, 2014 (GMT -0500)
RAWS ELKHORN WV US | Change Station
CLOSE
Current Station
Personal Weather Station
Location: Welch, WV
Elevation: 2100 ft
Nearby Weather Stations
Active Advisory: Wind Advisory

Elev 2100 ft 37.40 °N, 81.54 °W | Updated 30 minutes ago

Rain
Rain
53 °F
Feels Like 53 °F
N
10
Wind Variable Wind from SSE
Gusts 16.0 mph

Today
High -- | Low -- °F
--% Chance of Precip.
Yesterday
High -- | Low -- °F
Precip. -- in
7:13 AM 5:10 PM
New Moon, 2% visible
Pressure 29.96 in
Visibility 10.0 miles
Clouds Overcast 1500 ft
Dew Point 46 °F
Humidity 78%
Rainfall 0.00 in
Snow Depth Not available.
UV 1 out of 12
Pollen .10 out of 12
Air Quality Not available.
Flu Activity Not available.
METAR KBLF 231852Z AUTO VRB05G22KT 10SM OVC015 11/06 A2997 RMK AO2 SLP143 T01110061

More Conditions Fewer Conditions

Pressure 29.96 in
Visibility 10.0 miles
Clouds Overcast 1500 ft
Dew Point 46 °F
Humidity 78%
Rainfall 0.00 in
Snow Depth Not available.
UV 1 out of 12
Pollen .10 out of 12
Air Quality Not available.
Flu Activity Not available.
METAR KBLF 231852Z AUTO VRB05G22KT 10SM OVC015 11/06 A2997 RMK AO2 SLP143 T01110061

More Conditions Fewer Conditions

10-Day Weather Forecast

Almanac

Astronomy

Nov. 23, 2014 Rise Set
Actual Time
Civil Twilight
Nautical Twilight
Astronomical Twilight
Moon
Length of Visible Light
Length of Day
Tomorrow will be .
, % of the Moon is Illuminated

Today's Extremes

State Highs State Lows

Community

WunderPhotos

Upload Photos

1,773,161 photos uploaded!

WunderBlogs® & News

Nearby

Air Quality

  Air Quality AQ Index Pollutant
Not available.

Snow Depth

Station Depth Elevation

Earthquake Activity

City Distance Mag. Time & Date
Minimum magnitude displayed is 2.5.

Coastal Water Temperatures

Place Temperature

Nearby Weather Stations